sensor_id;sensor_type;location;lat;lon;timestamp;pressure;altitude;pressure_sealevel;temperature;humidity
38530;BME280;24301;54.332;48.386;2023-05-06T00:00:17;98652.34;;;11.79;100.00
38530;BME280;24301;54.332;48.386;2023-05-06T00:02:44;98660.38;;;11.74;100.00
38530;BME280;24301;54.332;48.386;2023-05-06T00:05:11;98671.78;;;11.75;100.00
38530;BME280;24301;54.332;48.386;2023-05-06T00:07:38;98683.94;;;11.81;100.00
38530;BME280;24301;54.332;48.386;2023-05-06T00:10:05;98707.22;;;11.98;100.00
38530;BME280;24301;54.332;48.386;2023-05-06T00:12:31;98709.38;;;12.18;100.00
38530;BME280;24301;54.332;48.386;2023-05-06T00:14:57;98716.09;;;12.31;100.00
38530;BME280;24301;54.332;48.386;2023-05-06T00:17:23;98707.94;;;12.41;100.00
38530;BME280;24301;54.332;48.386;2023-05-06T00:19:48;98693.75;;;12.45;99.10
38530;BME280;24301;54.332;48.386;2023-05-06T00:22:16;98695.28;;;12.54;98.10
38530;BME280;24301;54.332;48.386;2023-05-06T00:24:42;98695.03;;;12.63;97.78
38530;BME280;24301;54.332;48.386;2023-05-06T00:27:08;98697.44;;;12.71;96.51
38530;BME280;24301;54.332;48.386;2023-05-06T00:29:34;98695.81;;;12.67;94.82
38530;BME280;24301;54.332;48.386;2023-05-06T00:32:00;98688.72;;;12.69;93.81
38530;BME280;24301;54.332;48.386;2023-05-06T00:34:26;98683.72;;;12.59;92.42
38530;BME280;24301;54.332;48.386;2023-05-06T00:36:52;98670.13;;;12.42;90.18
38530;BME280;24301;54.332;48.386;2023-05-06T00:39:18;98677.38;;;12.33;90.25
38530;BME280;24301;54.332;48.386;2023-05-06T00:41:44;98674.00;;;12.28;90.41
38530;BME280;24301;54.332;48.386;2023-05-06T00:44:09;98659.25;;;12.21;90.16
38530;BME280;24301;54.332;48.386;2023-05-06T00:46:35;98657.75;;;12.11;89.64
38530;BME280;24301;54.332;48.386;2023-05-06T00:49:02;98648.28;;;12.03;90.44
38530;BME280;24301;54.332;48.386;2023-05-06T00:51:28;98644.94;;;11.95;90.69
38530;BME280;24301;54.332;48.386;2023-05-06T00:53:54;98638.84;;;11.93;90.99
38530;BME280;24301;54.332;48.386;2023-05-06T00:56:21;98623.94;;;11.93;91.68
38530;BME280;24301;54.332;48.386;2023-05-06T00:58:47;98629.34;;;11.87;91.63
38530;BME280;24301;54.332;48.386;2023-05-06T01:01:13;98632.75;;;11.91;92.07
38530;BME280;24301;54.332;48.386;2023-05-06T01:03:39;98634.41;;;11.95;92.02
38530;BME280;24301;54.332;48.386;2023-05-06T01:08:56;98627.28;;;12.00;90.99
38530;BME280;24301;54.332;48.386;2023-05-06T01:11:27;98636.84;;;12.04;91.20
38530;BME280;24301;54.332;48.386;2023-05-06T01:16:22;98634.22;;;12.04;89.33
38530;BME280;24301;54.332;48.386;2023-05-06T01:18:50;98632.50;;;12.02;88.77
38530;BME280;24301;54.332;48.386;2023-05-06T01:21:18;98625.50;;;11.99;88.36
38530;BME280;24301;54.332;48.386;2023-05-06T01:23:53;98627.31;;;11.99;87.91
38530;BME280;24301;54.332;48.386;2023-05-06T01:26:20;98615.16;;;11.93;87.99
38530;BME280;24301;54.332;48.386;2023-05-06T01:28:47;98612.44;;;11.96;87.54
38530;BME280;24301;54.332;48.386;2023-05-06T01:31:42;98619.56;;;11.92;86.62
38530;BME280;24301;54.332;48.386;2023-05-06T01:34:18;98615.41;;;11.84;86.61
38530;BME280;24301;54.332;48.386;2023-05-06T01:37:00;98603.22;;;11.79;86.54
38530;BME280;24301;54.332;48.386;2023-05-06T01:39:29;98598.09;;;11.73;86.50
38530;BME280;24301;54.332;48.386;2023-05-06T01:41:59;98592.06;;;11.68;86.84
38530;BME280;24301;54.332;48.386;2023-05-06T01:44:28;98577.44;;;11.58;86.83
38530;BME280;24301;54.332;48.386;2023-05-06T01:46:57;98586.97;;;11.62;87.25
38530;BME280;24301;54.332;48.386;2023-05-06T01:49:24;98579.22;;;11.56;87.22
38530;BME280;24301;54.332;48.386;2023-05-06T01:51:51;98578.34;;;11.55;87.58
38530;BME280;24301;54.332;48.386;2023-05-06T01:54:18;98576.72;;;11.51;87.51
38530;BME280;24301;54.332;48.386;2023-05-06T01:56:44;98582.03;;;11.49;87.78
38530;BME280;24301;54.332;48.386;2023-05-06T01:59:11;98587.06;;;11.57;88.33
38530;BME280;24301;54.332;48.386;2023-05-06T02:01:37;98580.88;;;11.60;87.64
38530;BME280;24301;54.332;48.386;2023-05-06T02:04:03;98583.50;;;11.60;87.33
38530;BME280;24301;54.332;48.386;2023-05-06T02:06:29;98581.72;;;11.62;87.69
38530;BME280;24301;54.332;48.386;2023-05-06T02:08:55;98573.00;;;11.60;87.61
38530;BME280;24301;54.332;48.386;2023-05-06T02:11:23;98581.72;;;11.60;88.05
38530;BME280;24301;54.332;48.386;2023-05-06T02:13:51;98583.53;;;11.58;88.23
38530;BME280;24301;54.332;48.386;2023-05-06T02:16:18;98582.72;;;11.56;87.78
38530;BME280;24301;54.332;48.386;2023-05-06T02:18:46;98595.09;;;11.53;88.17
38530;BME280;24301;54.332;48.386;2023-05-06T02:21:13;98615.94;;;11.62;88.16
38530;BME280;24301;54.332;48.386;2023-05-06T02:23:38;98642.72;;;11.78;88.26
38530;BME280;24301;54.332;48.386;2023-05-06T02:26:04;98653.09;;;11.84;88.10
38530;BME280;24301;54.332;48.386;2023-05-06T02:28:32;98628.94;;;11.68;86.82
38530;BME280;24301;54.332;48.386;2023-05-06T02:30:58;98595.78;;;11.59;86.87
38530;BME280;24301;54.332;48.386;2023-05-06T02:33:24;98599.34;;;11.58;87.31
38530;BME280;24301;54.332;48.386;2023-05-06T02:35:50;98625.56;;;11.61;87.04
38530;BME280;24301;54.332;48.386;2023-05-06T02:38:17;98639.44;;;11.70;86.64
38530;BME280;24301;54.332;48.386;2023-05-06T02:40:44;98635.34;;;11.58;85.53
38530;BME280;24301;54.332;48.386;2023-05-06T02:43:10;98619.75;;;11.48;85.00
38530;BME280;24301;54.332;48.386;2023-05-06T02:45:37;98592.66;;;11.45;85.47
38530;BME280;24301;54.332;48.386;2023-05-06T02:48:03;98582.94;;;11.47;85.18
38530;BME280;24301;54.332;48.386;2023-05-06T02:50:29;98573.97;;;11.56;85.00
38530;BME280;24301;54.332;48.386;2023-05-06T02:52:55;98565.09;;;11.60;84.57
38530;BME280;24301;54.332;48.386;2023-05-06T02:55:21;98569.25;;;11.69;84.32
38530;BME280;24301;54.332;48.386;2023-05-06T02:57:48;98568.91;;;11.83;83.75
38530;BME280;24301;54.332;48.386;2023-05-06T03:00:14;98568.38;;;12.04;83.22
38530;BME280;24301;54.332;48.386;2023-05-06T03:02:40;98564.44;;;12.19;82.41
38530;BME280;24301;54.332;48.386;2023-05-06T03:05:07;98551.13;;;12.24;81.56
38530;BME280;24301;54.332;48.386;2023-05-06T03:07:35;98536.38;;;12.18;80.68
38530;BME280;24301;54.332;48.386;2023-05-06T03:10:02;98544.44;;;12.12;80.22
38530;BME280;24301;54.332;48.386;2023-05-06T03:12:33;98531.88;;;12.22;80.50
38530;BME280;24301;54.332;48.386;2023-05-06T03:14:58;98535.16;;;12.30;79.74
38530;BME280;24301;54.332;48.386;2023-05-06T03:17:24;98537.03;;;12.57;80.04
38530;BME280;24301;54.332;48.386;2023-05-06T03:19:51;98540.09;;;13.30;79.19
38530;BME280;24301;54.332;48.386;2023-05-06T03:22:18;98538.97;;;13.64;75.71
38530;BME280;24301;54.332;48.386;2023-05-06T03:24:45;98518.38;;;13.48;74.65
38530;BME280;24301;54.332;48.386;2023-05-06T03:27:11;98532.44;;;13.49;75.35
38530;BME280;24301;54.332;48.386;2023-05-06T03:29:38;98534.84;;;13.57;74.30
38530;BME280;24301;54.332;48.386;2023-05-06T03:32:06;98535.50;;;13.35;73.57
38530;BME280;24301;54.332;48.386;2023-05-06T03:34:38;98534.84;;;13.57;73.67
38530;BME280;24301;54.332;48.386;2023-05-06T03:37:06;98542.31;;;13.69;72.47
38530;BME280;24301;54.332;48.386;2023-05-06T03:39:32;98526.56;;;13.39;71.24
38530;BME280;24301;54.332;48.386;2023-05-06T03:41:59;98536.19;;;13.13;71.61
38530;BME280;24301;54.332;48.386;2023-05-06T03:44:27;98536.50;;;12.75;72.59
38530;BME280;24301;54.332;48.386;2023-05-06T03:46:53;98537.75;;;12.62;73.39
38530;BME280;24301;54.332;48.386;2023-05-06T03:49:19;98526.84;;;12.74;73.79
38530;BME280;24301;54.332;48.386;2023-05-06T03:51:46;98521.69;;;12.71;72.74
38530;BME280;24301;54.332;48.386;2023-05-06T03:54:13;98540.34;;;12.33;72.76
38530;BME280;24301;54.332;48.386;2023-05-06T03:56:39;98546.31;;;12.09;73.55
38530;BME280;24301;54.332;48.386;2023-05-06T03:59:06;98567.84;;;11.90;74.30
38530;BME280;24301;54.332;48.386;2023-05-06T04:01:32;98635.03;;;11.70;74.85
38530;BME280;24301;54.332;48.386;2023-05-06T04:03:58;98663.31;;;11.62;75.57
38530;BME280;24301;54.332;48.386;2023-05-06T04:06:24;98639.28;;;11.40;75.97
38530;BME280;24301;54.332;48.386;2023-05-06T04:08:51;98619.72;;;11.12;77.24
38530;BME280;24301;54.332;48.386;2023-05-06T04:11:18;98598.00;;;11.02;78.92
38530;BME280;24301;54.332;48.386;2023-05-06T04:13:45;98597.28;;;10.96;79.66
38530;BME280;24301;54.332;48.386;2023-05-06T04:16:15;98623.78;;;10.85;80.71
38530;BME280;24301;54.332;48.386;2023-05-06T04:18:42;98666.03;;;10.77;81.07
38530;BME280;24301;54.332;48.386;2023-05-06T04:21:12;98673.31;;;10.62;81.02
38530;BME280;24301;54.332;48.386;2023-05-06T04:23:41;98654.66;;;10.28;81.20
38530;BME280;24301;54.332;48.386;2023-05-06T04:26:09;98656.81;;;10.05;81.72
38530;BME280;24301;54.332;48.386;2023-05-06T04:28:39;98653.69;;;9.83;82.32
38530;BME280;24301;54.332;48.386;2023-05-06T04:31:07;98642.56;;;9.67;82.48
38530;BME280;24301;54.332;48.386;2023-05-06T04:33:42;98646.97;;;9.67;82.44
38530;BME280;24301;54.332;48.386;2023-05-06T04:36:13;98640.09;;;9.58;82.35
38530;BME280;24301;54.332;48.386;2023-05-06T04:38:46;98630.50;;;9.57;82.57
38530;BME280;24301;54.332;48.386;2023-05-06T04:41:13;98627.16;;;9.45;81.98
38530;BME280;24301;54.332;48.386;2023-05-06T04:43:40;98632.59;;;9.33;81.77
38530;BME280;24301;54.332;48.386;2023-05-06T04:46:13;98605.59;;;9.28;82.10
38530;BME280;24301;54.332;48.386;2023-05-06T04:48:41;98605.53;;;9.31;81.51
38530;BME280;24301;54.332;48.386;2023-05-06T04:51:09;98611.56;;;9.36;80.93
38530;BME280;24301;54.332;48.386;2023-05-06T04:53:36;98602.81;;;9.39;80.53
38530;BME280;24301;54.332;48.386;2023-05-06T04:56:02;98607.94;;;9.45;80.01
38530;BME280;24301;54.332;48.386;2023-05-06T04:58:29;98608.13;;;9.32;79.61
38530;BME280;24301;54.332;48.386;2023-05-06T05:00:58;98630.88;;;9.32;80.04
38530;BME280;24301;54.332;48.386;2023-05-06T05:03:25;98636.91;;;9.37;80.01
38530;BME280;24301;54.332;48.386;2023-05-06T05:05:54;98634.38;;;9.31;80.12
38530;BME280;24301;54.332;48.386;2023-05-06T05:08:20;98620.38;;;9.32;80.23
38530;BME280;24301;54.332;48.386;2023-05-06T05:10:46;98604.69;;;9.29;79.93
38530;BME280;24301;54.332;48.386;2023-05-06T05:13:16;98595.00;;;9.36;79.97
38530;BME280;24301;54.332;48.386;2023-05-06T05:15:43;98595.94;;;9.30;78.99
38530;BME280;24301;54.332;48.386;2023-05-06T05:18:11;98617.88;;;9.24;79.01
38530;BME280;24301;54.332;48.386;2023-05-06T05:20:38;98639.03;;;9.10;79.21
38530;BME280;24301;54.332;48.386;2023-05-06T05:23:08;98653.22;;;8.95;80.29
38530;BME280;24301;54.332;48.386;2023-05-06T05:25:34;98653.28;;;8.90;80.94
38530;BME280;24301;54.332;48.386;2023-05-06T05:28:00;98660.25;;;8.91;81.33
38530;BME280;24301;54.332;48.386;2023-05-06T05:30:27;98665.56;;;8.87;81.83
38530;BME280;24301;54.332;48.386;2023-05-06T05:32:53;98674.41;;;8.76;82.17
38530;BME280;24301;54.332;48.386;2023-05-06T05:35:19;98682.28;;;8.78;82.62
38530;BME280;24301;54.332;48.386;2023-05-06T05:37:46;98692.72;;;8.81;82.69
38530;BME280;24301;54.332;48.386;2023-05-06T05:40:13;98698.84;;;8.80;82.29
38530;BME280;24301;54.332;48.386;2023-05-06T05:42:40;98701.50;;;8.77;81.87
38530;BME280;24301;54.332;48.386;2023-05-06T05:45:15;98698.94;;;8.71;81.56
38530;BME280;24301;54.332;48.386;2023-05-06T05:47:41;98692.00;;;8.67;81.58
38530;BME280;24301;54.332;48.386;2023-05-06T05:50:08;98685.09;;;8.61;81.65
38530;BME280;24301;54.332;48.386;2023-05-06T05:52:35;98672.06;;;8.53;81.17
38530;BME280;24301;54.332;48.386;2023-05-06T05:55:01;98681.03;;;8.26;81.75
38530;BME280;24301;54.332;48.386;2023-05-06T05:57:30;98704.59;;;8.26;82.27
38530;BME280;24301;54.332;48.386;2023-05-06T05:59:56;98704.66;;;8.24;82.99
38530;BME280;24301;54.332;48.386;2023-05-06T06:02:23;98719.50;;;8.22;82.88
38530;BME280;24301;54.332;48.386;2023-05-06T06:04:50;98729.97;;;8.20;83.04
38530;BME280;24301;54.332;48.386;2023-05-06T06:07:16;98715.19;;;8.15;83.00
38530;BME280;24301;54.332;48.386;2023-05-06T06:09:43;98716.97;;;8.10;82.26
38530;BME280;24301;54.332;48.386;2023-05-06T06:12:13;98724.81;;;8.10;81.43
38530;BME280;24301;54.332;48.386;2023-05-06T06:14:39;98716.13;;;8.08;81.43
38530;BME280;24301;54.332;48.386;2023-05-06T06:17:06;98723.06;;;8.12;81.29
38530;BME280;24301;54.332;48.386;2023-05-06T06:19:33;98713.56;;;8.00;80.31
38530;BME280;24301;54.332;48.386;2023-05-06T06:21:59;98731.00;;;8.01;80.32
38530;BME280;24301;54.332;48.386;2023-05-06T06:24:25;98738.84;;;8.02;80.05
38530;BME280;24301;54.332;48.386;2023-05-06T06:26:50;98743.19;;;8.07;79.91
38530;BME280;24301;54.332;48.386;2023-05-06T06:29:16;98751.88;;;8.13;80.21
38530;BME280;24301;54.332;48.386;2023-05-06T06:31:42;98754.41;;;8.24;79.82
38530;BME280;24301;54.332;48.386;2023-05-06T06:34:08;98747.38;;;8.25;79.06
38530;BME280;24301;54.332;48.386;2023-05-06T06:36:39;98739.50;;;8.29;78.93
38530;BME280;24301;54.332;48.386;2023-05-06T06:39:10;98736.97;;;8.17;78.35
38530;BME280;24301;54.332;48.386;2023-05-06T06:41:37;98710.78;;;8.17;77.98
38530;BME280;24301;54.332;48.386;2023-05-06T06:44:03;98733.53;;;8.12;77.21
38530;BME280;24301;54.332;48.386;2023-05-06T06:46:29;98739.66;;;8.11;76.78
38530;BME280;24301;54.332;48.386;2023-05-06T06:48:55;98723.94;;;8.11;76.24
38530;BME280;24301;54.332;48.386;2023-05-06T06:51:21;98732.56;;;8.25;75.98
38530;BME280;24301;54.332;48.386;2023-05-06T06:53:48;98726.28;;;8.42;75.57
38530;BME280;24301;54.332;48.386;2023-05-06T06:56:14;98722.75;;;8.49;74.26
38530;BME280;24301;54.332;48.386;2023-05-06T06:58:40;98722.94;;;8.27;73.74
38530;BME280;24301;54.332;48.386;2023-05-06T07:01:07;98741.44;;;8.04;74.34
38530;BME280;24301;54.332;48.386;2023-05-06T07:03:32;98758.03;;;8.03;75.38
38530;BME280;24301;54.332;48.386;2023-05-06T07:06:02;98781.63;;;8.00;75.55
38530;BME280;24301;54.332;48.386;2023-05-06T07:08:27;98794.81;;;7.83;75.06
38530;BME280;24301;54.332;48.386;2023-05-06T07:10:53;98801.84;;;7.78;75.49
38530;BME280;24301;54.332;48.386;2023-05-06T07:13:20;98778.34;;;7.65;75.39
38530;BME280;24301;54.332;48.386;2023-05-06T07:15:48;98799.31;;;7.59;75.65
38530;BME280;24301;54.332;48.386;2023-05-06T07:18:14;98811.47;;;7.68;75.51
38530;BME280;24301;54.332;48.386;2023-05-06T07:20:44;98780.09;;;7.65;75.50
38530;BME280;24301;54.332;48.386;2023-05-06T07:23:10;98756.59;;;7.60;75.48
38530;BME280;24301;54.332;48.386;2023-05-06T07:25:35;98784.47;;;7.61;75.47
38530;BME280;24301;54.332;48.386;2023-05-06T07:28:20;98842.03;;;7.66;75.61
38530;BME280;24301;54.332;48.386;2023-05-06T07:30:47;98868.13;;;7.70;75.34
38530;BME280;24301;54.332;48.386;2023-05-06T07:33:15;98842.88;;;7.72;75.56
38530;BME280;24301;54.332;48.386;2023-05-06T07:35:41;98834.13;;;7.70;75.23
38530;BME280;24301;54.332;48.386;2023-05-06T07:38:07;98847.25;;;7.66;75.71
38530;BME280;24301;54.332;48.386;2023-05-06T07:40:33;98883.84;;;7.70;76.88
38530;BME280;24301;54.332;48.386;2023-05-06T07:42:59;98871.69;;;7.61;76.99
38530;BME280;24301;54.332;48.386;2023-05-06T07:45:25;98866.47;;;7.54;76.38
38530;BME280;24301;54.332;48.386;2023-05-06T07:47:51;98896.13;;;7.56;76.87
38530;BME280;24301;54.332;48.386;2023-05-06T07:50:17;98883.88;;;7.61;77.44
38530;BME280;24301;54.332;48.386;2023-05-06T07:52:43;98871.69;;;7.61;76.76
38530;BME280;24301;54.332;48.386;2023-05-06T07:55:10;98877.81;;;7.56;76.91
38530;BME280;24301;54.332;48.386;2023-05-06T07:57:36;98860.38;;;7.55;77.18
38530;BME280;24301;54.332;48.386;2023-05-06T08:00:02;98862.97;;;7.56;77.42
38530;BME280;24301;54.332;48.386;2023-05-06T08:02:38;98858.66;;;7.46;77.22
38530;BME280;24301;54.332;48.386;2023-05-06T08:05:09;98865.69;;;7.33;77.23
38530;BME280;24301;54.332;48.386;2023-05-06T08:07:35;98886.59;;;7.41;77.68
38530;BME280;24301;54.332;48.386;2023-05-06T08:10:02;98909.25;;;7.39;77.88
38530;BME280;24301;54.332;48.386;2023-05-06T08:12:29;98929.28;;;7.47;78.38
38530;BME280;24301;54.332;48.386;2023-05-06T08:14:55;98941.50;;;7.36;78.12
38530;BME280;24301;54.332;48.386;2023-05-06T08:17:21;98931.91;;;7.35;78.71
38530;BME280;24301;54.332;48.386;2023-05-06T08:19:47;98920.59;;;7.38;78.72
38530;BME280;24301;54.332;48.386;2023-05-06T08:22:13;98911.84;;;7.43;79.07
38530;BME280;24301;54.332;48.386;2023-05-06T08:24:40;98920.56;;;7.52;78.54
38530;BME280;24301;54.332;48.386;2023-05-06T08:27:06;98896.06;;;7.70;78.43
38530;BME280;24301;54.332;48.386;2023-05-06T08:29:32;98886.38;;;7.94;78.32
38530;BME280;24301;54.332;48.386;2023-05-06T08:31:58;98879.38;;;7.96;76.28
38530;BME280;24301;54.332;48.386;2023-05-06T08:34:24;98901.16;;;8.02;76.55
38530;BME280;24301;54.332;48.386;2023-05-06T08:36:50;98908.09;;;8.05;76.17
38530;BME280;24301;54.332;48.386;2023-05-06T08:39:16;98909.84;;;8.08;76.10
38530;BME280;24301;54.332;48.386;2023-05-06T08:41:47;98913.34;;;8.07;76.12
38530;BME280;24301;54.332;48.386;2023-05-06T08:44:16;98922.13;;;7.93;75.26
38530;BME280;24301;54.332;48.386;2023-05-06T08:46:44;98920.38;;;7.98;75.75
38530;BME280;24301;54.332;48.386;2023-05-06T08:49:20;98919.47;;;8.02;75.43
38530;BME280;24301;54.332;48.386;2023-05-06T08:51:48;98934.38;;;7.85;74.71
38530;BME280;24301;54.332;48.386;2023-05-06T08:54:16;98945.72;;;7.85;75.11
38530;BME280;24301;54.332;48.386;2023-05-06T08:56:52;98958.78;;;7.91;75.56
38530;BME280;24301;54.332;48.386;2023-05-06T08:59:23;98968.41;;;7.89;75.15
38530;BME280;24301;54.332;48.386;2023-05-06T09:01:50;98962.28;;;7.89;75.29
38530;BME280;24301;54.332;48.386;2023-05-06T09:04:26;98972.75;;;7.86;74.67
38530;BME280;24301;54.332;48.386;2023-05-06T09:06:52;98972.75;;;7.90;75.37
38530;BME280;24301;54.332;48.386;2023-05-06T09:09:18;98978.81;;;7.94;75.34
38530;BME280;24301;54.332;48.386;2023-05-06T09:11:57;98984.06;;;7.91;74.89
38530;BME280;24301;54.332;48.386;2023-05-06T09:14:48;98981.47;;;7.89;75.63
38530;BME280;24301;54.332;48.386;2023-05-06T09:17:21;98982.22;;;8.19;75.20
38530;BME280;24301;54.332;48.386;2023-05-06T09:19:55;98986.44;;;8.44;75.02
38530;BME280;24301;54.332;48.386;2023-05-06T09:22:23;98979.47;;;8.52;74.24
38530;BME280;24301;54.332;48.386;2023-05-06T09:24:49;98982.84;;;8.73;74.26
38530;BME280;24301;54.332;48.386;2023-05-06T09:27:26;98989.66;;;8.94;73.96
38530;BME280;24301;54.332;48.386;2023-05-06T09:30:20;99006.97;;;9.15;73.03
38530;BME280;24301;54.332;48.386;2023-05-06T09:33:40;98993.69;;;9.36;72.67
38530;BME280;24301;54.332;48.386;2023-05-06T09:36:06;98994.50;;;9.39;71.86
38530;BME280;24301;54.332;48.386;2023-05-06T09:38:32;99013.03;;;9.22;71.05
38530;BME280;24301;54.332;48.386;2023-05-06T09:40:58;99007.00;;;9.09;71.56
38530;BME280;24301;54.332;48.386;2023-05-06T09:43:28;99013.88;;;9.24;72.47
38530;BME280;24301;54.332;48.386;2023-05-06T09:45:54;99018.16;;;9.34;72.06
38530;BME280;24301;54.332;48.386;2023-05-06T09:48:21;99030.44;;;9.29;71.94
38530;BME280;24301;54.332;48.386;2023-05-06T09:50:46;99024.50;;;9.10;72.06
38530;BME280;24301;54.332;48.386;2023-05-06T09:53:13;99022.84;;;8.94;72.52
38530;BME280;24301;54.332;48.386;2023-05-06T09:55:40;99029.06;;;8.79;72.73
38530;BME280;24301;54.332;48.386;2023-05-06T09:58:07;99032.50;;;8.90;72.56
38530;BME280;24301;54.332;48.386;2023-05-06T10:00:33;99027.13;;;9.07;72.76
38530;BME280;24301;54.332;48.386;2023-05-06T10:03:00;99040.97;;;9.26;72.30
38530;BME280;24301;54.332;48.386;2023-05-06T10:05:27;99043.47;;;9.40;71.59
38530;BME280;24301;54.332;48.386;2023-05-06T10:07:55;99033.78;;;9.45;71.05
38530;BME280;24301;54.332;48.386;2023-05-06T10:10:23;99040.78;;;9.46;70.63
38530;BME280;24301;54.332;48.386;2023-05-06T10:12:49;99041.53;;;9.61;71.04
38530;BME280;24301;54.332;48.386;2023-05-06T10:15:15;99042.25;;;9.77;70.52
38530;BME280;24301;54.332;48.386;2023-05-06T10:17:43;99048.28;;;9.87;70.31
38530;BME280;24301;54.332;48.386;2023-05-06T10:20:12;99047.44;;;9.85;70.07
38530;BME280;24301;54.332;48.386;2023-05-06T10:25:56;99056.94;;;9.97;70.03
38530;BME280;24301;54.332;48.386;2023-05-06T10:28:26;99051.66;;;10.00;69.90
38530;BME280;24301;54.332;48.386;2023-05-06T10:31:00;99048.94;;;10.06;70.16
38530;BME280;24301;54.332;48.386;2023-05-06T10:33:32;99054.22;;;10.04;69.74
38530;BME280;24301;54.332;48.386;2023-05-06T10:38:57;99050.78;;;9.98;69.36
38530;BME280;24301;54.332;48.386;2023-05-06T10:41:29;99051.75;;;9.89;68.92
38530;BME280;24301;54.332;48.386;2023-05-06T10:43:56;99068.31;;;9.94;69.05
38530;BME280;24301;54.332;48.386;2023-05-06T10:46:24;99060.44;;;9.94;69.01
38530;BME280;24301;54.332;48.386;2023-05-06T10:51:42;99052.50;;;10.03;69.06
38530;BME280;24301;54.332;48.386;2023-05-06T11:01:00;99060.84;;;10.38;68.37
38530;BME280;24301;54.332;48.386;2023-05-06T11:03:26;99060.81;;;10.43;67.59
38530;BME280;24301;54.332;48.386;2023-05-06T11:05:52;99054.72;;;10.38;67.25
38530;BME280;24301;54.332;48.386;2023-05-06T11:08:25;99063.47;;;10.41;67.28
38530;BME280;24301;54.332;48.386;2023-05-06T11:14:28;99072.19;;;10.42;66.49
38530;BME280;24301;54.332;48.386;2023-05-06T11:16:56;99064.38;;;10.35;67.15
38530;BME280;24301;54.332;48.386;2023-05-06T11:19:27;99067.16;;;10.21;66.59
38530;BME280;24301;54.332;48.386;2023-05-06T11:21:56;99063.81;;;10.07;66.59
38530;BME280;24301;54.332;48.386;2023-05-06T11:24:28;99071.69;;;10.07;67.18
38530;BME280;24301;54.332;48.386;2023-05-06T11:26:55;99070.75;;;10.13;67.00
38530;BME280;24301;54.332;48.386;2023-05-06T11:29:21;99072.50;;;10.14;66.71
38530;BME280;24301;54.332;48.386;2023-05-06T11:31:48;99069.91;;;10.11;67.39
38530;BME280;24301;54.332;48.386;2023-05-06T11:34:25;99077.66;;;10.23;67.77
38530;BME280;24301;54.332;48.386;2023-05-06T11:36:57;99073.34;;;10.17;67.29
38530;BME280;24301;54.332;48.386;2023-05-06T11:39:24;99070.06;;;9.97;67.27
38530;BME280;24301;54.332;48.386;2023-05-06T11:41:56;99074.56;;;9.84;67.54
38530;BME280;24301;54.332;48.386;2023-05-06T11:44:30;99071.16;;;9.72;67.91
38530;BME280;24301;54.332;48.386;2023-05-06T11:47:01;99070.31;;;9.73;68.23
38530;BME280;24301;54.332;48.386;2023-05-06T11:49:29;99077.34;;;9.70;68.24
38530;BME280;24301;54.332;48.386;2023-05-06T11:51:55;99073.72;;;9.82;68.28
38530;BME280;24301;54.332;48.386;2023-05-06T11:54:23;99075.38;;;9.90;68.37
38530;BME280;24301;54.332;48.386;2023-05-06T11:56:51;99070.22;;;9.83;68.09
38530;BME280;24301;54.332;48.386;2023-05-06T11:59:26;99076.38;;;9.78;68.38
38530;BME280;24301;54.332;48.386;2023-05-06T12:01:52;99076.31;;;9.86;68.60
38530;BME280;24301;54.332;48.386;2023-05-06T12:04:18;99075.16;;;10.12;68.44
38530;BME280;24301;54.332;48.386;2023-05-06T12:06:45;99066.75;;;10.57;67.89
38530;BME280;24301;54.332;48.386;2023-05-06T12:09:11;99069.81;;;10.90;66.47
38530;BME280;24301;54.332;48.386;2023-05-06T12:11:38;99065.19;;;11.06;65.36
38530;BME280;24301;54.332;48.386;2023-05-06T12:14:08;99058.69;;;11.31;65.33
38530;BME280;24301;54.332;48.386;2023-05-06T12:16:35;99063.78;;;11.40;64.57
38530;BME280;24301;54.332;48.386;2023-05-06T12:19:01;99054.94;;;11.44;63.85
38530;BME280;24301;54.332;48.386;2023-05-06T12:21:28;99054.56;;;11.66;64.25
38530;BME280;24301;54.332;48.386;2023-05-06T12:23:58;99047.72;;;12.06;63.47
38530;BME280;24301;54.332;48.386;2023-05-06T12:26:25;99039.41;;;12.28;62.83
38530;BME280;24301;54.332;48.386;2023-05-06T12:29:06;99046.53;;;12.23;61.84
38530;BME280;24301;54.332;48.386;2023-05-06T12:31:33;99038.16;;;12.00;61.96
38530;BME280;24301;54.332;48.386;2023-05-06T12:33:59;99041.28;;;11.74;61.97
38530;BME280;24301;54.332;48.386;2023-05-06T12:36:25;99046.59;;;11.17;62.55
38530;BME280;24301;54.332;48.386;2023-05-06T12:38:55;99060.34;;;10.78;63.41
38530;BME280;24301;54.332;48.386;2023-05-06T12:41:23;99056.34;;;10.51;64.31
38530;BME280;24301;54.332;48.386;2023-05-06T12:43:50;99068.81;;;10.30;64.88
38530;BME280;24301;54.332;48.386;2023-05-06T12:46:17;99075.94;;;10.19;65.38
38530;BME280;24301;54.332;48.386;2023-05-06T12:48:59;99076.97;;;10.05;65.83
38530;BME280;24301;54.332;48.386;2023-05-06T12:51:25;99070.13;;;9.89;65.71
38530;BME280;24301;54.332;48.386;2023-05-06T12:53:51;99079.97;;;9.68;65.93
38530;BME280;24301;54.332;48.386;2023-05-06T12:56:19;99074.81;;;9.59;66.50
38530;BME280;24301;54.332;48.386;2023-05-06T12:58:59;99085.25;;;9.62;66.96
38530;BME280;24301;54.332;48.386;2023-05-06T13:01:26;99088.00;;;9.49;66.47
38530;BME280;24301;54.332;48.386;2023-05-06T13:03:55;99088.00;;;9.49;67.15
38530;BME280;24301;54.332;48.386;2023-05-06T13:06:23;99087.06;;;9.57;67.26
38530;BME280;24301;54.332;48.386;2023-05-06T13:08:48;99085.88;;;9.90;67.32
38530;BME280;24301;54.332;48.386;2023-05-06T13:11:15;99089.19;;;10.08;66.51
38530;BME280;24301;54.332;48.386;2023-05-06T13:13:41;99093.44;;;10.20;66.71
38530;BME280;24301;54.332;48.386;2023-05-06T13:16:07;99092.78;;;10.02;66.63
38530;BME280;24301;54.332;48.386;2023-05-06T13:18:35;99100.75;;;9.90;66.99
38530;BME280;24301;54.332;48.386;2023-05-06T13:21:13;99104.22;;;9.92;67.55
38530;BME280;24301;54.332;48.386;2023-05-06T13:24:33;99093.69;;;9.95;67.41